Main page
METAR-TAF:

METAR-TAF

Airports :

Juan Vicente Gómez International Airport

San Antonio del Táchira, Venezuela

latitude: 07-51N, longitude: 072-27W, elevation: 377 m

METAR: missing

Time: 04:58 (08:58 UTC)

Forecast

The report was made 4 hours and 58 minutes ago, at 04:00 UTC
Forecast valid from 03 at 06 UTC to 04 at 06 UTC
Wind 4 kt from the West
Visibility: 9000 m
Broken clouds at a height of 1600 ft
drizzle
Temporary
from 03 at 06 UTC to 03 at 10 UTC
Wind 6 kt from the South
Visibility: 9000 m
Broken clouds at a height of 1000 ft
light drizzle

TAF: SVSA 030400Z 0306/0406 27004KT 9000 DZ BKN016 TX30/19Z TN22/08Z TEMPO 0306/0310 17006KT 9000 -DZ BKN010

Weather observations and forecasts of more than 4000 airports (METAR and TAF reports).

The available stations are represented by yellow and red dots on the map.

Hover mouse over dot to see the name of the station.

Then click to see weather observations and forecasts.

To change the map : click on the green buttons with a black cross to zoom in, on the green button with a dash to zoom out, or on the green arrows for adjacent maps.


METAR-TAF: